Covert, MI (49043)

10:22 AM EST on February 13, 2016 (GMT -0500)
East Paw Paw Lake | | Change Station
CLOSE
Current Station
Personal Weather Station
Location: Watervliet, MI
Elevation: 663 ft
Nearby Weather Stations

Elev 663 ft 42.21 °N, 86.25 °W | Updated 13 seconds ago

Snow
Snow
13.7 °F
Feels Like 14 °F
N
0.0
Wind Variable Wind from NW
Gusts 2.0 mph

Today
High -- | Low -- °F
--% Chance of Precip.
Yesterday
High -- | Low -- °F
Precip. -- in
Pressure 30.49 in
Visibility 5.0 miles
Clouds Scattered Clouds 500 ft
Mostly Cloudy 3300 ft
Overcast 4200 ft
Windchill 14 °F
Dew Point 10 °F
Humidity 83%
Rainfall 0.00 in
Snow Depth Not available.
7:44 AM 6:14 PM
Waxing Crescent, 31% visible
METAR KLWA 131516Z AUTO 33011G18KT 5SM HZ SCT005 BKN033 OVC042 M10/M15 A3049 RMK AO2 T10981153
Pressure 30.49 in
Visibility 5.0 miles
Clouds Scattered Clouds 500 ft
Mostly Cloudy 3300 ft
Overcast 4200 ft
Windchill 14 °F
Dew Point 10 °F
Humidity 83%
Rainfall 0.00 in
Snow Depth Not available.
7:44 AM 6:14 PM
Waxing Crescent, 31% visible
METAR KLWA 131516Z AUTO 33011G18KT 5SM HZ SCT005 BKN033 OVC042 M10/M15 A3049 RMK AO2 T10981153

10-Day Weather Forecast

Almanac

Astronomy

Feb. 13, 2016 Rise Set
Actual Time
Civil Twilight
Nautical Twilight
Astronomical Twilight
Moon
Length of Visible Light
Length of Day
Tomorrow will be .
, % of the Moon is Illuminated

Today's Extremes

State Highs State Lows

Community

WunderPhotos

Upload Photos

1,892,580 photos uploaded!

WunderBlog® & News

Nearby

Air Quality

  Air Quality AQ Index Pollutant
Not available.

Snow Depth

Station Depth Elevation

Earthquake Activity

City Distance Mag. Time & Date
Minimum magnitude displayed is 2.5.

Coastal Water Temperatures

Place Temperature

Stations

Nearby Weather Stations

Station Location Temp. Windchill Dew Point Humidity Wind Precip. Elev Updated Type
                   

Watches & Warnings

Winter Storm Warning
Issued: 3:37 AM EST Feb. 13, 2016 – National Weather Service

... Winter Storm Warning remains in effect until 4 PM EST this
afternoon...

Hazardous weather...

* additional accumulations 2 to 3 inches... locally higher.

* Rapid visibility changes.

* Storm total snowfall 6 to 10 inches.

Impacts...

* hazardous travel with rapid changes in Road conditions.

* Accidents and slideoffs with slippery roads and poor
   visibility.

* Closures and cancellations expected.

Precautionary/preparedness actions...

* the Michigan Department of Transportation reminds motorists
   to adjust speeds based on the conditions... and to take it
   slow in ice and snow.